sensor_id;sensor_type;location;lat;lon;timestamp;temperature;humidity
64858;SHT30;51335;51.148;6.950;2023-05-29T00:00:20;15.21;72.71
64858;SHT30;51335;51.148;6.950;2023-05-29T00:00:51;15.14;72.68
64858;SHT30;51335;51.148;6.950;2023-05-29T00:01:21;15.12;72.63
64858;SHT30;51335;51.148;6.950;2023-05-29T00:01:51;15.14;72.56
64858;SHT30;51335;51.148;6.950;2023-05-29T00:02:21;15.14;72.52
64858;SHT30;51335;51.148;6.950;2023-05-29T00:02:52;15.17;72.40
64858;SHT30;51335;51.148;6.950;2023-05-29T00:03:22;15.15;72.40
64858;SHT30;51335;51.148;6.950;2023-05-29T00:03:52;15.14;72.48
64858;SHT30;51335;51.148;6.950;2023-05-29T00:04:22;15.12;72.38
64858;SHT30;51335;51.148;6.950;2023-05-29T00:04:53;15.10;72.41
64858;SHT30;51335;51.148;6.950;2023-05-29T00:05:23;15.05;72.47
64858;SHT30;51335;51.148;6.950;2023-05-29T00:05:53;15.07;72.43
64858;SHT30;51335;51.148;6.950;2023-05-29T00:06:24;15.03;72.55
64858;SHT30;51335;51.148;6.950;2023-05-29T00:06:54;15.01;72.63
64858;SHT30;51335;51.148;6.950;2023-05-29T00:07:24;15.01;72.54
64858;SHT30;51335;51.148;6.950;2023-05-29T00:07:55;15.01;72.52
64858;SHT30;51335;51.148;6.950;2023-05-29T00:08:25;15.00;72.63
64858;SHT30;51335;51.148;6.950;2023-05-29T00:08:55;14.95;72.51
64858;SHT30;51335;51.148;6.950;2023-05-29T00:09:25;14.94;72.48
64858;SHT30;51335;51.148;6.950;2023-05-29T00:09:56;14.90;72.55
64858;SHT30;51335;51.148;6.950;2023-05-29T00:10:26;14.87;72.56
64858;SHT30;51335;51.148;6.950;2023-05-29T00:10:56;14.88;72.73
64858;SHT30;51335;51.148;6.950;2023-05-29T00:11:27;14.90;72.53
64858;SHT30;51335;51.148;6.950;2023-05-29T00:11:57;14.90;72.63
64858;SHT30;51335;51.148;6.950;2023-05-29T00:12:27;14.91;72.64
64858;SHT30;51335;51.148;6.950;2023-05-29T00:12:57;14.94;72.42
64858;SHT30;51335;51.148;6.950;2023-05-29T00:13:28;14.94;72.29
64858;SHT30;51335;51.148;6.950;2023-05-29T00:13:58;14.95;72.39
64858;SHT30;51335;51.148;6.950;2023-05-29T00:14:28;14.91;72.35
64858;SHT30;51335;51.148;6.950;2023-05-29T00:14:59;14.90;72.44
64858;SHT30;51335;51.148;6.950;2023-05-29T00:15:29;14.85;72.44
64858;SHT30;51335;51.148;6.950;2023-05-29T00:15:59;14.87;72.54
64858;SHT30;51335;51.148;6.950;2023-05-29T00:16:30;14.88;72.56
64858;SHT30;51335;51.148;6.950;2023-05-29T00:17:00;14.83;72.41
64858;SHT30;51335;51.148;6.950;2023-05-29T00:17:30;14.81;72.51
64858;SHT30;51335;51.148;6.950;2023-05-29T00:18:01;14.84;72.48
64858;SHT30;51335;51.148;6.950;2023-05-29T00:18:31;14.81;72.34
64858;SHT30;51335;51.148;6.950;2023-05-29T00:19:01;14.83;72.41
64858;SHT30;51335;51.148;6.950;2023-05-29T00:19:32;14.83;72.30
64858;SHT30;51335;51.148;6.950;2023-05-29T00:20:02;14.83;72.21
64858;SHT30;51335;51.148;6.950;2023-05-29T00:20:33;14.80;72.26
64858;SHT30;51335;51.148;6.950;2023-05-29T00:21:03;14.74;72.38
64858;SHT30;51335;51.148;6.950;2023-05-29T00:21:33;14.77;72.46
64858;SHT30;51335;51.148;6.950;2023-05-29T00:22:04;14.77;72.45
64858;SHT30;51335;51.148;6.950;2023-05-29T00:22:34;14.73;72.52
64858;SHT30;51335;51.148;6.950;2023-05-29T00:23:05;14.67;72.59
64858;SHT30;51335;51.148;6.950;2023-05-29T00:23:35;14.70;72.65
64858;SHT30;51335;51.148;6.950;2023-05-29T00:24:05;14.72;72.61
64858;SHT30;51335;51.148;6.950;2023-05-29T00:24:35;14.70;72.61
64858;SHT30;51335;51.148;6.950;2023-05-29T00:25:06;14.69;72.59
64858;SHT30;51335;51.148;6.950;2023-05-29T00:25:37;14.67;72.52
64858;SHT30;51335;51.148;6.950;2023-05-29T00:26:07;14.69;72.52
64858;SHT30;51335;51.148;6.950;2023-05-29T00:26:38;14.67;72.57
64858;SHT30;51335;51.148;6.950;2023-05-29T00:27:09;14.69;72.60
64858;SHT30;51335;51.148;6.950;2023-05-29T00:27:39;14.64;72.58
64858;SHT30;51335;51.148;6.950;2023-05-29T00:28:09;14.60;72.75
64858;SHT30;51335;51.148;6.950;2023-05-29T00:28:40;14.56;72.79
64858;SHT30;51335;51.148;6.950;2023-05-29T00:29:10;14.55;72.74
64858;SHT30;51335;51.148;6.950;2023-05-29T00:29:40;14.50;72.91
64858;SHT30;51335;51.148;6.950;2023-05-29T00:30:11;14.55;72.94
64858;SHT30;51335;51.148;6.950;2023-05-29T00:30:41;14.59;72.91
64858;SHT30;51335;51.148;6.950;2023-05-29T00:31:11;14.57;72.83
64858;SHT30;51335;51.148;6.950;2023-05-29T00:31:42;14.59;72.62
64858;SHT30;51335;51.148;6.950;2023-05-29T00:32:12;14.57;72.63
64858;SHT30;51335;51.148;6.950;2023-05-29T00:32:42;14.59;72.71
64858;SHT30;51335;51.148;6.950;2023-05-29T00:33:12;14.56;72.64
64858;SHT30;51335;51.148;6.950;2023-05-29T00:33:43;14.55;72.50
64858;SHT30;51335;51.148;6.950;2023-05-29T00:34:13;14.49;72.66
64858;SHT30;51335;51.148;6.950;2023-05-29T00:34:43;14.47;72.78
64858;SHT30;51335;51.148;6.950;2023-05-29T00:35:14;14.46;72.69
64858;SHT30;51335;51.148;6.950;2023-05-29T00:35:44;14.45;72.84
64858;SHT30;51335;51.148;6.950;2023-05-29T00:36:14;14.43;72.79
64858;SHT30;51335;51.148;6.950;2023-05-29T00:36:45;14.42;72.85
64858;SHT30;51335;51.148;6.950;2023-05-29T00:37:15;14.45;72.92
64858;SHT30;51335;51.148;6.950;2023-05-29T00:37:45;14.46;72.92
64858;SHT30;51335;51.148;6.950;2023-05-29T00:38:16;14.42;72.90
64858;SHT30;51335;51.148;6.950;2023-05-29T00:38:46;14.35;73.14
64858;SHT30;51335;51.148;6.950;2023-05-29T00:39:16;14.33;73.20
64858;SHT30;51335;51.148;6.950;2023-05-29T00:39:47;14.35;73.12
64858;SHT30;51335;51.148;6.950;2023-05-29T00:40:18;14.29;73.26
64858;SHT30;51335;51.148;6.950;2023-05-29T00:40:48;14.26;73.37
64858;SHT30;51335;51.148;6.950;2023-05-29T00:41:18;14.32;73.23
64858;SHT30;51335;51.148;6.950;2023-05-29T00:41:49;14.26;73.29
64858;SHT30;51335;51.148;6.950;2023-05-29T00:42:19;14.28;73.27
64858;SHT30;51335;51.148;6.950;2023-05-29T00:42:49;14.33;73.06
64858;SHT30;51335;51.148;6.950;2023-05-29T00:43:19;14.32;73.04
64858;SHT30;51335;51.148;6.950;2023-05-29T00:43:50;14.35;73.01
64858;SHT30;51335;51.148;6.950;2023-05-29T00:44:21;14.37;73.06
64858;SHT30;51335;51.148;6.950;2023-05-29T00:44:51;14.37;73.03
64858;SHT30;51335;51.148;6.950;2023-05-29T00:45:21;14.35;73.12
64858;SHT30;51335;51.148;6.950;2023-05-29T00:45:52;14.37;73.07
64858;SHT30;51335;51.148;6.950;2023-05-29T00:46:22;14.37;73.13
64858;SHT30;51335;51.148;6.950;2023-05-29T00:46:52;14.37;73.07
64858;SHT30;51335;51.148;6.950;2023-05-29T00:47:23;14.35;73.14
64858;SHT30;51335;51.148;6.950;2023-05-29T00:47:53;14.33;73.08
64858;SHT30;51335;51.148;6.950;2023-05-29T00:48:24;14.32;73.07
64858;SHT30;51335;51.148;6.950;2023-05-29T00:48:55;14.30;73.17
64858;SHT30;51335;51.148;6.950;2023-05-29T00:49:25;14.26;73.22
64858;SHT30;51335;51.148;6.950;2023-05-29T00:49:56;14.19;73.44
64858;SHT30;51335;51.148;6.950;2023-05-29T00:50:27;14.15;73.61
64858;SHT30;51335;51.148;6.950;2023-05-29T00:50:57;14.19;73.62
64858;SHT30;51335;51.148;6.950;2023-05-29T00:51:28;14.21;73.52
64858;SHT30;51335;51.148;6.950;2023-05-29T00:51:59;14.19;73.46
64858;SHT30;51335;51.148;6.950;2023-05-29T00:52:29;14.12;73.62
64858;SHT30;51335;51.148;6.950;2023-05-29T00:53:01;14.12;73.58
64858;SHT30;51335;51.148;6.950;2023-05-29T00:53:31;14.16;73.65
64858;SHT30;51335;51.148;6.950;2023-05-29T00:54:02;14.15;73.58
64858;SHT30;51335;51.148;6.950;2023-05-29T00:54:33;14.11;73.70
64858;SHT30;51335;51.148;6.950;2023-05-29T00:55:04;14.04;73.94
64858;SHT30;51335;51.148;6.950;2023-05-29T00:55:35;13.98;74.20
64858;SHT30;51335;51.148;6.950;2023-05-29T00:56:06;13.97;74.21
64858;SHT30;51335;51.148;6.950;2023-05-29T00:56:38;13.92;74.26
64858;SHT30;51335;51.148;6.950;2023-05-29T00:57:09;13.91;74.30
64858;SHT30;51335;51.148;6.950;2023-05-29T00:57:40;13.92;74.45
64858;SHT30;51335;51.148;6.950;2023-05-29T00:58:10;13.92;74.43
64858;SHT30;51335;51.148;6.950;2023-05-29T00:58:41;14.01;74.22
64858;SHT30;51335;51.148;6.950;2023-05-29T00:59:12;14.04;74.06
64858;SHT30;51335;51.148;6.950;2023-05-29T00:59:44;14.06;73.97
64858;SHT30;51335;51.148;6.950;2023-05-29T01:00:15;14.00;74.16
64858;SHT30;51335;51.148;6.950;2023-05-29T01:00:46;13.97;74.19
64858;SHT30;51335;51.148;6.950;2023-05-29T01:01:20;13.89;74.34
64858;SHT30;51335;51.148;6.950;2023-05-29T01:01:51;13.87;74.53
64858;SHT30;51335;51.148;6.950;2023-05-29T01:02:21;13.81;74.81
64858;SHT30;51335;51.148;6.950;2023-05-29T01:02:52;13.78;74.83
64858;SHT30;51335;51.148;6.950;2023-05-29T01:03:22;13.75;74.94
64858;SHT30;51335;51.148;6.950;2023-05-29T01:03:55;13.73;75.07
64858;SHT30;51335;51.148;6.950;2023-05-29T01:04:26;13.78;75.03
64858;SHT30;51335;51.148;6.950;2023-05-29T01:04:57;13.81;74.85
64858;SHT30;51335;51.148;6.950;2023-05-29T01:05:28;13.79;74.85
64858;SHT30;51335;51.148;6.950;2023-05-29T01:05:58;13.74;75.01
64858;SHT30;51335;51.148;6.950;2023-05-29T01:06:29;13.71;75.12
64858;SHT30;51335;51.148;6.950;2023-05-29T01:07:02;13.68;75.23
64858;SHT30;51335;51.148;6.950;2023-05-29T01:07:33;13.70;75.20
64858;SHT30;51335;51.148;6.950;2023-05-29T01:08:03;13.78;75.15
64858;SHT30;51335;51.148;6.950;2023-05-29T01:08:33;13.78;75.05
64858;SHT30;51335;51.148;6.950;2023-05-29T01:09:04;13.73;74.99
64858;SHT30;51335;51.148;6.950;2023-05-29T01:09:34;13.73;75.21
64858;SHT30;51335;51.148;6.950;2023-05-29T01:10:05;13.78;75.12
64858;SHT30;51335;51.148;6.950;2023-05-29T01:10:36;13.84;75.06
64858;SHT30;51335;51.148;6.950;2023-05-29T01:11:15;13.81;75.00
64858;SHT30;51335;51.148;6.950;2023-05-29T01:13:10;13.74;75.35
64858;SHT30;51335;51.148;6.950;2023-05-29T01:13:44;13.68;75.47
64858;SHT30;51335;51.148;6.950;2023-05-29T01:15:56;13.67;75.56
64858;SHT30;51335;51.148;6.950;2023-05-29T01:16:36;13.61;75.71
64858;SHT30;51335;51.148;6.950;2023-05-29T01:20:18;13.63;75.82
64858;SHT30;51335;51.148;6.950;2023-05-29T01:20:59;13.56;76.06
64858;SHT30;51335;51.148;6.950;2023-05-29T01:27:24;13.37;76.75
64858;SHT30;51335;51.148;6.950;2023-05-29T01:27:55;13.37;76.64
64858;SHT30;51335;51.148;6.950;2023-05-29T01:28:38;13.39;76.57
64858;SHT30;51335;51.148;6.950;2023-05-29T01:29:13;13.33;76.67
64858;SHT30;51335;51.148;6.950;2023-05-29T01:29:45;13.39;76.71
64858;SHT30;51335;51.148;6.950;2023-05-29T01:30:16;13.37;76.59
64858;SHT30;51335;51.148;6.950;2023-05-29T01:30:49;13.35;76.67
64858;SHT30;51335;51.148;6.950;2023-05-29T01:31:22;13.32;76.73
64858;SHT30;51335;51.148;6.950;2023-05-29T01:31:54;13.30;76.90
64858;SHT30;51335;51.148;6.950;2023-05-29T01:32:25;13.32;76.88
64858;SHT30;51335;51.148;6.950;2023-05-29T01:32:55;13.35;76.92
64858;SHT30;51335;51.148;6.950;2023-05-29T01:33:26;13.37;76.72
64858;SHT30;51335;51.148;6.950;2023-05-29T01:33:58;13.36;76.81
64858;SHT30;51335;51.148;6.950;2023-05-29T01:34:29;13.36;76.87
64858;SHT30;51335;51.148;6.950;2023-05-29T01:34:59;13.37;76.78
64858;SHT30;51335;51.148;6.950;2023-05-29T01:35:31;13.33;76.76
64858;SHT30;51335;51.148;6.950;2023-05-29T01:36:01;13.30;76.94
64858;SHT30;51335;51.148;6.950;2023-05-29T01:36:31;13.29;76.94
64858;SHT30;51335;51.148;6.950;2023-05-29T01:37:02;13.29;77.01
64858;SHT30;51335;51.148;6.950;2023-05-29T01:37:32;13.22;77.19
64858;SHT30;51335;51.148;6.950;2023-05-29T01:38:02;13.19;77.42
64858;SHT30;51335;51.148;6.950;2023-05-29T01:38:33;13.15;77.49
64858;SHT30;51335;51.148;6.950;2023-05-29T01:39:03;13.15;77.52
64858;SHT30;51335;51.148;6.950;2023-05-29T01:39:35;13.16;77.56
64858;SHT30;51335;51.148;6.950;2023-05-29T01:40:06;13.18;77.40
64858;SHT30;51335;51.148;6.950;2023-05-29T01:40:37;13.19;77.47
64858;SHT30;51335;51.148;6.950;2023-05-29T01:41:08;13.15;77.50
64858;SHT30;51335;51.148;6.950;2023-05-29T01:41:38;13.09;77.60
64858;SHT30;51335;51.148;6.950;2023-05-29T01:42:10;13.12;77.56
64858;SHT30;51335;51.148;6.950;2023-05-29T01:42:40;13.19;77.54
64858;SHT30;51335;51.148;6.950;2023-05-29T01:43:12;13.22;77.38
64858;SHT30;51335;51.148;6.950;2023-05-29T01:43:46;13.20;77.48
64858;SHT30;51335;51.148;6.950;2023-05-29T01:44:17;13.18;77.41
64858;SHT30;51335;51.148;6.950;2023-05-29T01:44:48;13.18;77.43
64858;SHT30;51335;51.148;6.950;2023-05-29T01:45:18;13.19;77.50
64858;SHT30;51335;51.148;6.950;2023-05-29T01:45:49;13.20;77.45
64858;SHT30;51335;51.148;6.950;2023-05-29T01:46:20;13.18;77.46
64858;SHT30;51335;51.148;6.950;2023-05-29T01:46:51;13.20;77.54
64858;SHT30;51335;51.148;6.950;2023-05-29T01:47:22;13.12;77.52
64858;SHT30;51335;51.148;6.950;2023-05-29T01:47:53;13.12;77.77
64858;SHT30;51335;51.148;6.950;2023-05-29T01:48:24;13.03;77.93
64858;SHT30;51335;51.148;6.950;2023-05-29T01:48:55;13.05;77.90
64858;SHT30;51335;51.148;6.950;2023-05-29T01:49:26;13.08;77.90
64858;SHT30;51335;51.148;6.950;2023-05-29T01:49:58;13.06;77.83
64858;SHT30;51335;51.148;6.950;2023-05-29T01:50:29;13.05;78.04
64858;SHT30;51335;51.148;6.950;2023-05-29T01:50:59;13.05;78.03
64858;SHT30;51335;51.148;6.950;2023-05-29T01:51:30;13.10;78.04
64858;SHT30;51335;51.148;6.950;2023-05-29T01:52:00;13.10;78.03
64858;SHT30;51335;51.148;6.950;2023-05-29T01:52:31;13.10;78.00
64858;SHT30;51335;51.148;6.950;2023-05-29T01:53:01;13.09;77.99
64858;SHT30;51335;51.148;6.950;2023-05-29T01:53:31;13.13;78.03
64858;SHT30;51335;51.148;6.950;2023-05-29T01:54:02;13.16;78.06
64858;SHT30;51335;51.148;6.950;2023-05-29T01:54:33;13.10;77.99
64858;SHT30;51335;51.148;6.950;2023-05-29T01:55:04;13.09;78.03
64858;SHT30;51335;51.148;6.950;2023-05-29T01:55:34;13.10;78.04
64858;SHT30;51335;51.148;6.950;2023-05-29T01:56:08;13.06;78.14
64858;SHT30;51335;51.148;6.950;2023-05-29T01:56:39;13.08;78.15
64858;SHT30;51335;51.148;6.950;2023-05-29T01:57:10;13.05;78.29
64858;SHT30;51335;51.148;6.950;2023-05-29T01:57:42;13.03;78.39
64858;SHT30;51335;51.148;6.950;2023-05-29T01:58:13;13.06;78.42
64858;SHT30;51335;51.148;6.950;2023-05-29T01:58:45;13.03;78.48
64858;SHT30;51335;51.148;6.950;2023-05-29T01:59:16;13.05;78.52
64858;SHT30;51335;51.148;6.950;2023-05-29T01:59:47;13.02;78.57
64858;SHT30;51335;51.148;6.950;2023-05-29T02:00:18;13.02;78.63
64858;SHT30;51335;51.148;6.950;2023-05-29T02:00:48;12.96;78.67
64858;SHT30;51335;51.148;6.950;2023-05-29T02:01:20;12.91;79.13
64858;SHT30;51335;51.148;6.950;2023-05-29T02:01:51;12.88;79.16
64858;SHT30;51335;51.148;6.950;2023-05-29T02:02:22;12.91;79.15
64858;SHT30;51335;51.148;6.950;2023-05-29T02:02:52;12.92;79.13
64858;SHT30;51335;51.148;6.950;2023-05-29T02:03:22;12.89;79.20
64858;SHT30;51335;51.148;6.950;2023-05-29T02:03:52;12.88;79.25
64858;SHT30;51335;51.148;6.950;2023-05-29T02:04:23;12.87;79.27
64858;SHT30;51335;51.148;6.950;2023-05-29T02:04:53;12.85;79.39
64858;SHT30;51335;51.148;6.950;2023-05-29T02:05:23;12.84;79.36
64858;SHT30;51335;51.148;6.950;2023-05-29T02:05:53;12.84;79.33
64858;SHT30;51335;51.148;6.950;2023-05-29T02:06:24;12.79;79.45
64858;SHT30;51335;51.148;6.950;2023-05-29T02:06:54;12.72;79.66
64858;SHT30;51335;51.148;6.950;2023-05-29T02:07:24;12.69;79.88
64858;SHT30;51335;51.148;6.950;2023-05-29T02:07:54;12.78;79.82
64858;SHT30;51335;51.148;6.950;2023-05-29T02:08:25;12.79;79.76
64858;SHT30;51335;51.148;6.950;2023-05-29T02:08:56;12.79;79.69
64858;SHT30;51335;51.148;6.950;2023-05-29T02:09:26;12.81;79.68
64858;SHT30;51335;51.148;6.950;2023-05-29T02:09:57;12.78;79.62
64858;SHT30;51335;51.148;6.950;2023-05-29T02:10:27;12.79;79.78
64858;SHT30;51335;51.148;6.950;2023-05-29T02:10:57;12.78;79.87
64858;SHT30;51335;51.148;6.950;2023-05-29T02:11:27;12.75;80.05
64858;SHT30;51335;51.148;6.950;2023-05-29T02:11:58;12.78;80.04
64858;SHT30;51335;51.148;6.950;2023-05-29T02:12:28;12.78;80.10
64858;SHT30;51335;51.148;6.950;2023-05-29T02:12:58;12.74;80.03
64858;SHT30;51335;51.148;6.950;2023-05-29T02:13:28;12.71;80.24
64858;SHT30;51335;51.148;6.950;2023-05-29T02:13:59;12.69;80.31
64858;SHT30;51335;51.148;6.950;2023-05-29T02:14:29;12.65;80.35
64858;SHT30;51335;51.148;6.950;2023-05-29T02:14:59;12.61;80.51
64858;SHT30;51335;51.148;6.950;2023-05-29T02:15:29;12.58;80.72
64858;SHT30;51335;51.148;6.950;2023-05-29T02:16:00;12.61;80.71
64858;SHT30;51335;51.148;6.950;2023-05-29T02:16:30;12.60;80.69
64858;SHT30;51335;51.148;6.950;2023-05-29T02:17:00;12.61;80.72
64858;SHT30;51335;51.148;6.950;2023-05-29T02:17:30;12.57;80.81
64858;SHT30;51335;51.148;6.950;2023-05-29T02:18:01;12.57;80.83
64858;SHT30;51335;51.148;6.950;2023-05-29T02:18:31;12.57;80.79
64858;SHT30;51335;51.148;6.950;2023-05-29T02:19:01;12.58;80.78
64858;SHT30;51335;51.148;6.950;2023-05-29T02:19:32;12.54;80.78
64858;SHT30;51335;51.148;6.950;2023-05-29T02:20:02;12.52;80.87
64858;SHT30;51335;51.148;6.950;2023-05-29T02:20:32;12.51;80.96
64858;SHT30;51335;51.148;6.950;2023-05-29T02:21:03;12.50;81.13
64858;SHT30;51335;51.148;6.950;2023-05-29T02:21:33;12.48;81.14
64858;SHT30;51335;51.148;6.950;2023-05-29T02:22:03;12.50;81.14
64858;SHT30;51335;51.148;6.950;2023-05-29T02:22:34;12.48;81.22
64858;SHT30;51335;51.148;6.950;2023-05-29T02:23:04;12.50;81.28
64858;SHT30;51335;51.148;6.950;2023-05-29T02:23:34;12.45;81.24
64858;SHT30;51335;51.148;6.950;2023-05-29T02:24:05;12.48;81.29
64858;SHT30;51335;51.148;6.950;2023-05-29T02:24:35;12.47;81.25
64858;SHT30;51335;51.148;6.950;2023-05-29T02:25:06;12.45;81.22
64858;SHT30;51335;51.148;6.950;2023-05-29T02:25:36;12.44;81.32
64858;SHT30;51335;51.148;6.950;2023-05-29T02:26:06;12.41;81.37
64858;SHT30;51335;51.148;6.950;2023-05-29T02:26:36;12.34;81.57
64858;SHT30;51335;51.148;6.950;2023-05-29T02:27:07;12.27;81.56
64858;SHT30;51335;51.148;6.950;2023-05-29T02:27:37;12.24;81.70
64858;SHT30;51335;51.148;6.950;2023-05-29T02:28:07;12.30;81.69
64858;SHT30;51335;51.148;6.950;2023-05-29T02:28:38;12.27;81.74
64858;SHT30;51335;51.148;6.950;2023-05-29T02:29:08;12.31;81.85
64858;SHT30;51335;51.148;6.950;2023-05-29T02:29:38;12.30;81.85
64858;SHT30;51335;51.148;6.950;2023-05-29T02:30:09;12.26;81.74
64858;SHT30;51335;51.148;6.950;2023-05-29T02:30:39;12.27;81.75
64858;SHT30;51335;51.148;6.950;2023-05-29T02:31:09;12.26;81.74
64858;SHT30;51335;51.148;6.950;2023-05-29T02:31:40;12.27;81.79
64858;SHT30;51335;51.148;6.950;2023-05-29T02:32:10;12.30;81.79
64858;SHT30;51335;51.148;6.950;2023-05-29T02:32:40;12.29;81.86
64858;SHT30;51335;51.148;6.950;2023-05-29T02:33:11;12.27;81.73
64858;SHT30;51335;51.148;6.950;2023-05-29T02:33:41;12.27;81.70
64858;SHT30;51335;51.148;6.950;2023-05-29T02:34:11;12.27;81.61
64858;SHT30;51335;51.148;6.950;2023-05-29T02:34:41;12.24;81.70
64858;SHT30;51335;51.148;6.950;2023-05-29T02:35:12;12.23;81.78
64858;SHT30;51335;51.148;6.950;2023-05-29T02:35:42;12.22;81.76
64858;SHT30;51335;51.148;6.950;2023-05-29T02:36:13;12.09;82.15
64858;SHT30;51335;51.148;6.950;2023-05-29T02:36:43;12.10;82.15
64858;SHT30;51335;51.148;6.950;2023-05-29T02:37:13;12.06;82.16
64858;SHT30;51335;51.148;6.950;2023-05-29T02:37:43;12.04;82.16
64858;SHT30;51335;51.148;6.950;2023-05-29T02:38:14;12.07;82.14
64858;SHT30;51335;51.148;6.950;2023-05-29T02:38:44;12.07;82.11
64858;SHT30;51335;51.148;6.950;2023-05-29T02:39:15;12.06;82.04
64858;SHT30;51335;51.148;6.950;2023-05-29T02:39:45;12.07;81.97
64858;SHT30;51335;51.148;6.950;2023-05-29T02:40:16;12.04;81.98
64858;SHT30;51335;51.148;6.950;2023-05-29T02:40:46;12.04;81.88
64858;SHT30;51335;51.148;6.950;2023-05-29T02:41:17;12.02;81.83
64858;SHT30;51335;51.148;6.950;2023-05-29T02:41:47;11.97;82.04
64858;SHT30;51335;51.148;6.950;2023-05-29T02:42:17;11.97;82.20
64858;SHT30;51335;51.148;6.950;2023-05-29T02:42:49;11.94;82.28
64858;SHT30;51335;51.148;6.950;2023-05-29T02:43:21;11.97;82.24
64858;SHT30;51335;51.148;6.950;2023-05-29T02:43:52;11.97;82.09
64858;SHT30;51335;51.148;6.950;2023-05-29T02:44:22;11.99;82.05
64858;SHT30;51335;51.148;6.950;2023-05-29T02:44:52;11.96;82.11
64858;SHT30;51335;51.148;6.950;2023-05-29T02:45:22;11.96;82.16
64858;SHT30;51335;51.148;6.950;2023-05-29T02:45:53;11.99;82.12
64858;SHT30;51335;51.148;6.950;2023-05-29T02:46:23;11.94;82.08
64858;SHT30;51335;51.148;6.950;2023-05-29T02:46:53;11.87;82.17
64858;SHT30;51335;51.148;6.950;2023-05-29T02:47:24;11.85;82.25
64858;SHT30;51335;51.148;6.950;2023-05-29T02:47:54;11.86;82.34
64858;SHT30;51335;51.148;6.950;2023-05-29T02:48:24;11.83;82.29
64858;SHT30;51335;51.148;6.950;2023-05-29T02:48:54;11.83;82.40
64858;SHT30;51335;51.148;6.950;2023-05-29T02:49:25;11.87;82.40
64858;SHT30;51335;51.148;6.950;2023-05-29T02:49:55;11.89;82.35
64858;SHT30;51335;51.148;6.950;2023-05-29T02:50:25;11.89;82.23
64858;SHT30;51335;51.148;6.950;2023-05-29T02:50:55;11.87;82.18
64858;SHT30;51335;51.148;6.950;2023-05-29T02:51:26;11.83;82.11
64858;SHT30;51335;51.148;6.950;2023-05-29T02:51:56;11.85;82.14
64858;SHT30;51335;51.148;6.950;2023-05-29T02:52:26;11.82;82.10
64858;SHT30;51335;51.148;6.950;2023-05-29T02:52:57;11.83;82.24
64858;SHT30;51335;51.148;6.950;2023-05-29T02:53:27;11.81;82.19
64858;SHT30;51335;51.148;6.950;2023-05-29T02:53:57;11.83;82.19
64858;SHT30;51335;51.148;6.950;2023-05-29T02:54:28;11.81;82.14
64858;SHT30;51335;51.148;6.950;2023-05-29T02:54:59;11.81;82.08
64858;SHT30;51335;51.148;6.950;2023-05-29T02:55:29;11.75;82.13
64858;SHT30;51335;51.148;6.950;2023-05-29T02:55:59;11.75;82.30
64858;SHT30;51335;51.148;6.950;2023-05-29T02:56:30;11.73;82.34
64858;SHT30;51335;51.148;6.950;2023-05-29T02:57:00;11.72;82.30
64858;SHT30;51335;51.148;6.950;2023-05-29T02:57:30;11.69;82.36
64858;SHT30;51335;51.148;6.950;2023-05-29T02:58:01;11.71;82.46
64858;SHT30;51335;51.148;6.950;2023-05-29T02:58:31;11.72;82.45
64858;SHT30;51335;51.148;6.950;2023-05-29T02:59:01;11.64;82.49
64858;SHT30;51335;51.148;6.950;2023-05-29T02:59:32;11.61;82.60
64858;SHT30;51335;51.148;6.950;2023-05-29T03:00:02;11.55;82.75
64858;SHT30;51335;51.148;6.950;2023-05-29T03:00:33;11.58;82.73
64858;SHT30;51335;51.148;6.950;2023-05-29T03:01:03;11.62;82.61
64858;SHT30;51335;51.148;6.950;2023-05-29T03:01:34;11.64;82.54
64858;SHT30;51335;51.148;6.950;2023-05-29T03:02:04;11.65;82.42
64858;SHT30;51335;51.148;6.950;2023-05-29T03:02:34;11.64;82.44
64858;SHT30;51335;51.148;6.950;2023-05-29T03:03:05;11.62;82.48
64858;SHT30;51335;51.148;6.950;2023-05-29T03:03:35;11.65;82.45
64858;SHT30;51335;51.148;6.950;2023-05-29T03:04:05;11.55;82.44
64858;SHT30;51335;51.148;6.950;2023-05-29T03:04:35;11.52;82.74
64858;SHT30;51335;51.148;6.950;2023-05-29T03:05:06;11.50;82.80
64858;SHT30;51335;51.148;6.950;2023-05-29T03:05:36;11.52;82.84
64858;SHT30;51335;51.148;6.950;2023-05-29T03:06:07;11.48;82.78
64858;SHT30;51335;51.148;6.950;2023-05-29T03:06:37;11.54;82.89
64858;SHT30;51335;51.148;6.950;2023-05-29T03:07:07;11.54;82.85
64858;SHT30;51335;51.148;6.950;2023-05-29T03:07:37;11.51;82.78
64858;SHT30;51335;51.148;6.950;2023-05-29T03:08:08;11.48;82.83
64858;SHT30;51335;51.148;6.950;2023-05-29T03:08:38;11.51;82.80
64858;SHT30;51335;51.148;6.950;2023-05-29T03:09:08;11.50;82.80
64858;SHT30;51335;51.148;6.950;2023-05-29T03:09:39;11.50;82.75
64858;SHT30;51335;51.148;6.950;2023-05-29T03:10:09;11.51;82.78
64858;SHT30;51335;51.148;6.950;2023-05-29T03:10:39;11.48;82.73
64858;SHT30;51335;51.148;6.950;2023-05-29T03:11:13;11.50;82.85
64858;SHT30;51335;51.148;6.950;2023-05-29T03:11:43;11.51;82.78
64858;SHT30;51335;51.148;6.950;2023-05-29T03:12:13;11.52;82.75
64858;SHT30;51335;51.148;6.950;2023-05-29T03:12:44;11.50;82.74
64858;SHT30;51335;51.148;6.950;2023-05-29T03:13:14;11.44;82.85
64858;SHT30;51335;51.148;6.950;2023-05-29T03:13:45;11.44;82.97
64858;SHT30;51335;51.148;6.950;2023-05-29T03:14:15;11.45;82.91
64858;SHT30;51335;51.148;6.950;2023-05-29T03:14:45;11.38;83.05
64858;SHT30;51335;51.148;6.950;2023-05-29T03:15:16;11.39;83.06
64858;SHT30;51335;51.148;6.950;2023-05-29T03:15:46;11.44;83.00
64858;SHT30;51335;51.148;6.950;2023-05-29T03:16:17;11.44;82.97
64858;SHT30;51335;51.148;6.950;2023-05-29T03:16:48;11.44;82.94
64858;SHT30;51335;51.148;6.950;2023-05-29T03:17:19;11.41;82.87
64858;SHT30;51335;51.148;6.950;2023-05-29T03:17:49;11.42;82.95
64858;SHT30;51335;51.148;6.950;2023-05-29T03:18:19;11.45;82.92
64858;SHT30;51335;51.148;6.950;2023-05-29T03:18:50;11.46;82.87
64858;SHT30;51335;51.148;6.950;2023-05-29T03:19:20;11.44;82.82
64858;SHT30;51335;51.148;6.950;2023-05-29T03:19:50;11.45;82.85
64858;SHT30;51335;51.148;6.950;2023-05-29T03:20:21;11.48;82.81
64858;SHT30;51335;51.148;6.950;2023-05-29T03:20:51;11.46;82.88
64858;SHT30;51335;51.148;6.950;2023-05-29T03:21:21;11.48;82.90
64858;SHT30;51335;51.148;6.950;2023-05-29T03:21:51;11.44;82.87
64858;SHT30;51335;51.148;6.950;2023-05-29T03:22:22;11.45;82.92
64858;SHT30;51335;51.148;6.950;2023-05-29T03:22:52;11.46;82.85
64858;SHT30;51335;51.148;6.950;2023-05-29T03:23:22;11.50;82.78
64858;SHT30;51335;51.148;6.950;2023-05-29T03:23:53;11.42;82.83
64858;SHT30;51335;51.148;6.950;2023-05-29T03:24:23;11.44;82.89
64858;SHT30;51335;51.148;6.950;2023-05-29T03:24:53;11.42;82.93
64858;SHT30;51335;51.148;6.950;2023-05-29T03:25:24;11.41;82.94
64858;SHT30;51335;51.148;6.950;2023-05-29T03:25:54;11.44;82.93